createdAt,value
2023-01-02T00:01:43.104Z,5.80
2023-01-02T00:04:11.571Z,5.77
2023-01-02T00:06:40.731Z,5.80
2023-01-02T00:09:10.024Z,5.77
2023-01-02T00:11:39.214Z,5.33
2023-01-02T00:14:09.054Z,5.40
2023-01-02T00:16:37.394Z,5.63
2023-01-02T00:19:06.926Z,6.47
2023-01-02T00:21:35.285Z,4.90
2023-01-02T00:24:05.080Z,5.50
2023-01-02T00:26:33.481Z,5.27
2023-01-02T00:29:02.319Z,4.30
2023-01-02T00:31:33.302Z,5.97
2023-01-02T00:34:01.749Z,5.50
2023-01-02T00:36:31.182Z,5.50
2023-01-02T00:38:59.607Z,5.13
2023-01-02T00:41:27.969Z,4.57
2023-01-02T00:43:56.451Z,5.30
2023-01-02T00:46:24.877Z,5.37
2023-01-02T00:48:54.732Z,4.67
2023-01-02T00:51:23.064Z,4.60
2023-01-02T00:53:51.565Z,4.53
2023-01-02T00:56:19.981Z,4.87
2023-01-02T00:58:48.678Z,4.93
2023-01-02T01:01:16.999Z,4.67
2023-01-02T01:03:46.480Z,5.50
2023-01-02T01:06:17.222Z,5.00
2023-01-02T01:08:45.600Z,5.07
2023-01-02T01:11:16.778Z,4.77
2023-01-02T01:13:45.685Z,4.33
2023-01-02T01:16:16.287Z,4.80
2023-01-02T01:18:45.729Z,4.97
2023-01-02T01:21:17.526Z,5.43
2023-01-02T01:23:46.573Z,5.13
2023-01-02T01:26:15.101Z,7.57
2023-01-02T01:28:43.534Z,5.13
2023-01-02T01:31:13.929Z,5.40
2023-01-02T01:33:43.807Z,5.23
2023-01-02T01:36:14.646Z,5.57
2023-01-02T01:38:45.114Z,5.87
2023-01-02T01:41:15.373Z,6.10
2023-01-02T01:43:46.853Z,5.00
2023-01-02T01:46:22.879Z,5.47
2023-01-02T01:48:56.046Z,4.93
2023-01-02T01:51:25.866Z,5.60
2023-01-02T01:54:01.497Z,5.03
2023-01-02T01:56:30.119Z,6.80
2023-01-02T01:58:58.532Z,6.23
2023-01-02T02:01:26.996Z,5.80
2023-01-02T02:03:55.980Z,5.17
2023-01-02T02:06:24.500Z,4.83
2023-01-02T02:09:00.914Z,4.67
2023-01-02T02:11:30.013Z,4.80
2023-01-02T02:14:01.054Z,5.17
2023-01-02T02:16:40.794Z,5.90
2023-01-02T02:19:35.580Z,5.13
2023-01-02T02:22:24.508Z,5.47
2023-01-02T02:25:27.058Z,4.40
2023-01-02T02:28:20.274Z,5.13
2023-01-02T02:30:56.685Z,4.97
2023-01-02T02:33:38.136Z,5.40
2023-01-02T02:36:16.120Z,4.83
2023-01-02T02:38:58.329Z,5.00
2023-01-02T02:41:35.638Z,4.97
2023-01-02T02:44:13.220Z,5.43
2023-01-02T02:46:51.306Z,4.60
2023-01-02T02:49:32.617Z,4.10
2023-01-02T02:52:08.734Z,4.83
2023-01-02T02:54:43.374Z,4.50
2023-01-02T02:57:14.061Z,4.73
2023-01-02T02:59:43.668Z,4.07
2023-01-02T03:02:17.157Z,4.37
2023-01-02T03:04:48.148Z,5.07
2023-01-02T03:07:26.893Z,4.77
2023-01-02T03:10:05.757Z,4.07
2023-01-02T03:12:44.803Z,5.07
2023-01-02T03:15:21.480Z,4.93
2023-01-02T03:18:05.791Z,5.03
2023-01-02T03:20:39.192Z,4.33
2023-01-02T03:23:12.343Z,4.80
2023-01-02T03:25:45.168Z,4.53
2023-01-02T03:28:18.291Z,4.47
2023-01-02T03:30:48.843Z,4.60
2023-01-02T03:33:25.536Z,3.73
2023-01-02T03:35:57.847Z,5.00
2023-01-02T03:38:30.506Z,4.47
2023-01-02T03:41:06.754Z,4.73
2023-01-02T03:43:37.946Z,4.47
2023-01-02T03:46:12.115Z,5.60
2023-01-02T03:48:47.447Z,5.70
2023-01-02T03:51:15.888Z,5.07
2023-01-02T03:53:45.222Z,4.13
2023-01-02T03:56:23.799Z,4.40
2023-01-02T03:58:57.785Z,4.00
2023-01-02T04:01:35.930Z,3.87
2023-01-02T04:04:14.659Z,4.37
2023-01-02T04:06:47.447Z,3.83
2023-01-02T04:09:20.038Z,3.73
2023-01-02T04:11:52.579Z,4.60
2023-01-02T04:14:26.128Z,4.17
2023-01-02T04:16:56.884Z,4.97
2023-01-02T04:19:30.110Z,3.83
2023-01-02T04:22:02.482Z,4.03
2023-01-02T04:24:34.624Z,4.70
2023-01-02T04:27:07.871Z,3.77
2023-01-02T04:29:36.744Z,3.63
2023-01-02T04:32:12.759Z,4.37
2023-01-02T04:34:44.882Z,4.13
2023-01-02T04:37:28.007Z,3.53
2023-01-02T04:39:59.909Z,4.33
2023-01-02T04:42:28.479Z,3.50
2023-01-02T04:44:56.872Z,4.33
2023-01-02T04:47:25.342Z,4.07
2023-01-02T04:49:55.103Z,3.60
2023-01-02T04:52:23.581Z,4.17
2023-01-02T04:54:51.940Z,3.97
2023-01-02T04:57:20.377Z,3.70
2023-01-02T04:59:48.736Z,4.37
2023-01-02T05:02:17.175Z,4.17
2023-01-02T05:04:45.618Z,4.23
2023-01-02T05:07:15.488Z,3.73
2023-01-02T05:09:43.887Z,3.67
2023-01-02T05:12:12.288Z,4.00
2023-01-02T05:14:41.679Z,4.07
2023-01-02T05:17:10.054Z,3.53
2023-01-02T05:19:38.426Z,3.57
2023-01-02T05:22:24.127Z,4.40
2023-01-02T05:24:54.007Z,4.27
2023-01-02T05:27:22.482Z,3.70
2023-01-02T05:29:50.850Z,4.40
2023-01-02T05:32:19.226Z,4.30
2023-01-02T05:34:47.632Z,4.37
2023-01-02T05:37:16.083Z,3.90
2023-01-02T05:39:44.409Z,4.30
2023-01-02T05:42:14.214Z,3.80
2023-01-02T05:44:42.553Z,3.93
2023-01-02T05:47:16.361Z,4.37
2023-01-02T05:49:45.243Z,4.40
2023-01-02T05:52:13.670Z,4.63
2023-01-02T05:54:42.165Z,4.23
2023-01-02T05:57:10.562Z,4.60
2023-01-02T05:59:40.415Z,3.97
2023-01-02T06:02:09.172Z,3.37
2023-01-02T06:04:37.725Z,4.10
2023-01-02T06:07:06.142Z,4.27
2023-01-02T06:09:34.537Z,3.27
2023-01-02T06:12:02.868Z,4.03
2023-01-02T06:14:32.196Z,3.80
2023-01-02T06:17:01.964Z,3.17
2023-01-02T06:19:30.314Z,3.40
2023-01-02T06:21:58.773Z,2.87
2023-01-02T06:24:27.160Z,3.30
2023-01-02T06:26:57.265Z,3.60
2023-01-02T06:29:25.702Z,4.13
2023-01-02T06:31:54.149Z,4.53
2023-01-02T06:34:23.939Z,5.37
2023-01-02T06:36:52.253Z,4.30
2023-01-02T06:39:20.576Z,4.20
2023-01-02T06:41:48.942Z,4.13
2023-01-02T06:44:17.617Z,4.23
2023-01-02T06:46:45.991Z,5.17
2023-01-02T06:49:14.301Z,3.23
2023-01-02T06:51:44.119Z,3.70
2023-01-02T06:54:12.716Z,3.50
2023-01-02T06:56:41.049Z,3.00
2023-01-02T06:59:10.811Z,3.50
2023-01-02T07:01:39.333Z,4.17
2023-01-02T07:04:07.786Z,3.70
2023-01-02T07:06:36.229Z,3.63
2023-01-02T07:09:06.024Z,4.43
2023-01-02T07:11:35.868Z,3.13
2023-01-02T07:14:05.281Z,2.73
2023-01-02T07:16:33.802Z,3.53
2023-01-02T07:19:02.498Z,3.10
2023-01-02T07:21:31.464Z,2.83
2023-01-02T07:23:59.783Z,4.07
2023-01-02T07:26:29.673Z,3.37
2023-01-02T07:28:58.039Z,3.90
2023-01-02T07:31:29.321Z,3.53
2023-01-02T07:33:59.114Z,4.30
2023-01-02T07:36:27.430Z,3.47
2023-01-02T07:38:57.380Z,3.90
2023-01-02T07:41:27.189Z,2.70
2023-01-02T07:43:57.203Z,2.97
2023-01-02T07:46:26.159Z,3.47
2023-01-02T07:48:54.788Z,2.97
2023-01-02T07:51:27.395Z,3.33
2023-01-02T07:53:57.138Z,3.97
2023-01-02T07:56:25.621Z,4.97
2023-01-02T07:58:54.508Z,3.27
2023-01-02T08:01:24.677Z,3.30
2023-01-02T08:03:53.367Z,2.97
2023-01-02T08:06:21.966Z,3.50
2023-01-02T08:08:50.695Z,3.90
2023-01-02T08:11:21.447Z,4.23
2023-01-02T08:13:50.259Z,3.33
2023-01-02T08:16:20.338Z,3.83
2023-01-02T08:18:52.403Z,3.50
2023-01-02T08:21:20.832Z,3.53
2023-01-02T08:23:49.213Z,3.90
2023-01-02T08:26:17.850Z,2.90
2023-01-02T08:28:46.342Z,3.97
2023-01-02T08:31:19.046Z,4.23
2023-01-02T08:33:49.209Z,4.77
2023-01-02T08:36:20.201Z,3.37
2023-01-02T08:38:48.686Z,3.17
2023-01-02T08:41:17.064Z,4.10
2023-01-02T08:43:45.535Z,3.80
2023-01-02T08:46:13.926Z,4.23
2023-01-02T08:48:42.283Z,3.83
2023-01-02T08:51:12.462Z,3.77
2023-01-02T08:53:40.881Z,4.67
2023-01-02T08:56:20.509Z,3.87
2023-01-02T08:58:53.884Z,3.20
2023-01-02T09:01:24.015Z,3.90
2023-01-02T09:03:53.448Z,3.63
2023-01-02T09:06:24.675Z,4.13
2023-01-02T09:08:55.492Z,4.43
2023-01-02T09:11:26.607Z,3.60
2023-01-02T09:13:55.669Z,3.70
2023-01-02T09:16:24.625Z,3.70
2023-01-02T09:18:53.365Z,4.43
2023-01-02T09:21:23.252Z,3.20
2023-01-02T09:23:51.970Z,4.30
2023-01-02T09:26:21.357Z,3.83
2023-01-02T09:28:50.959Z,3.80
2023-01-02T09:31:20.286Z,4.00
2023-01-02T09:33:49.580Z,4.13
2023-01-02T09:36:19.769Z,4.37
2023-01-02T09:38:54.748Z,3.57
2023-01-02T09:41:34.432Z,4.00
2023-01-02T09:44:06.980Z,3.50
2023-01-02T09:46:41.956Z,5.27
2023-01-02T09:49:14.845Z,4.57
2023-01-02T09:51:44.982Z,4.53
2023-01-02T09:54:22.106Z,4.20
2023-01-02T09:56:58.574Z,3.70
2023-01-02T09:59:33.134Z,4.03
2023-01-02T10:02:14.480Z,3.63
2023-01-02T10:04:57.317Z,4.57
2023-01-02T10:07:34.632Z,4.00
2023-01-02T10:10:09.621Z,3.97
2023-01-02T10:12:47.417Z,3.93
2023-01-02T10:15:22.077Z,4.63
2023-01-02T10:17:57.802Z,4.50
2023-01-02T10:20:31.896Z,4.47
2023-01-02T10:23:04.454Z,5.60
2023-01-02T10:25:37.703Z,5.70
2023-01-02T10:28:21.028Z,5.73
2023-01-02T10:31:07.039Z,4.80
2023-01-02T10:33:43.788Z,5.77
2023-01-02T10:36:23.644Z,6.03
2023-01-02T10:38:52.648Z,11.03
2023-01-02T10:41:22.351Z,11.73
2023-01-02T10:43:56.003Z,8.43
2023-01-02T10:46:24.417Z,7.33
2023-01-02T10:48:52.954Z,5.77
2023-01-02T10:51:22.426Z,4.07
2023-01-02T10:54:02.204Z,4.03
2023-01-02T10:56:35.496Z,4.73
2023-01-02T10:59:04.238Z,5.07
2023-01-02T11:01:39.674Z,4.60
2023-01-02T11:04:14.217Z,6.13
2023-01-02T11:06:53.296Z,5.70
2023-01-02T11:09:23.681Z,4.93
2023-01-02T11:11:55.220Z,7.07
2023-01-02T11:14:28.531Z,7.77
2023-01-02T11:17:05.320Z,6.30
2023-01-02T11:19:41.746Z,5.77
2023-01-02T11:22:10.906Z,5.97
2023-01-02T11:25:00.579Z,5.97
2023-01-02T11:27:35.267Z,5.40
2023-01-02T11:30:05.513Z,5.80
2023-01-02T11:32:40.899Z,5.50
2023-01-02T11:35:35.083Z,5.07
2023-01-02T11:38:03.801Z,4.70
2023-01-02T11:40:33.904Z,5.50
2023-01-02T11:43:26.809Z,4.30
2023-01-02T11:45:56.035Z,5.20
2023-01-02T11:48:25.888Z,5.30
2023-01-02T11:50:54.460Z,4.10
2023-01-02T11:53:28.459Z,4.13
2023-01-02T11:56:01.686Z,4.70
2023-01-02T11:58:38.551Z,4.63
2023-01-02T12:01:13.266Z,4.23
2023-01-02T12:03:42.122Z,4.50
2023-01-02T12:06:18.344Z,4.73
2023-01-02T12:09:01.781Z,6.17
2023-01-02T12:11:41.777Z,4.80
2023-01-02T12:14:18.125Z,5.00
2023-01-02T12:16:53.609Z,5.00
2023-01-02T12:19:50.226Z,5.80
2023-01-02T12:22:47.074Z,5.40
2023-01-02T12:25:36.129Z,4.67
2023-01-02T12:28:20.159Z,5.40
2023-01-02T12:30:57.311Z,4.57
2023-01-02T12:33:41.583Z,5.40
2023-01-02T12:36:36.779Z,5.43
2023-01-02T12:39:40.516Z,5.40
2023-01-02T12:42:23.886Z,5.40
2023-01-02T12:44:55.080Z,5.90
2023-01-02T12:47:34.618Z,5.60
2023-01-02T12:50:26.689Z,6.03
2023-01-02T12:53:08.253Z,5.00
2023-01-02T12:55:50.679Z,5.87
2023-01-02T12:58:36.433Z,6.13
2023-01-02T13:01:15.195Z,4.63
2023-01-02T13:03:55.303Z,4.57
2023-01-02T13:06:44.797Z,5.73
2023-01-02T13:09:23.103Z,4.70
2023-01-02T13:12:02.625Z,4.57
2023-01-02T13:14:36.826Z,5.30
2023-01-02T13:17:30.060Z,4.83
2023-01-02T13:20:05.663Z,5.33
2023-01-02T13:22:48.881Z,4.87
2023-01-02T13:25:22.030Z,5.10
2023-01-02T13:27:52.237Z,5.90
2023-01-02T13:30:45.278Z,5.97
2023-01-02T13:33:23.937Z,5.27
2023-01-02T13:35:53.959Z,5.10
2023-01-02T13:38:30.630Z,3.90
2023-01-02T13:41:03.571Z,4.60
2023-01-02T13:43:34.839Z,5.23
2023-01-02T13:46:03.821Z,4.47
2023-01-02T13:48:36.500Z,4.53
2023-01-02T13:51:14.347Z,4.57
2023-01-02T13:53:44.555Z,5.80
2023-01-02T13:56:14.742Z,4.90
2023-01-02T13:58:49.566Z,4.37
2023-01-02T14:02:04.496Z,4.43
2023-01-02T14:04:40.595Z,4.20
2023-01-02T14:07:56.245Z,4.57
2023-01-02T14:10:45.122Z,3.30
2023-01-02T14:13:25.088Z,5.40
2023-01-02T14:16:32.378Z,3.87
2023-01-02T14:19:17.614Z,3.43
2023-01-02T14:21:49.259Z,3.87
2023-01-02T14:24:30.748Z,4.33
2023-01-02T14:27:03.780Z,4.20
2023-01-02T14:29:40.723Z,4.43
2023-01-02T14:32:18.679Z,4.00
2023-01-02T14:34:49.542Z,4.20
2023-01-02T14:37:38.262Z,3.63
2023-01-02T14:40:18.554Z,2.83
2023-01-02T14:43:12.973Z,3.30
2023-01-02T14:45:45.902Z,3.47
2023-01-02T14:48:21.061Z,3.43
2023-01-02T14:50:51.601Z,3.67
2023-01-02T14:53:24.029Z,3.57
2023-01-02T14:55:56.932Z,4.00
2023-01-02T14:58:40.662Z,4.27
2023-01-02T15:01:11.992Z,3.97
2023-01-02T15:03:49.473Z,3.90
2023-01-02T15:06:25.382Z,4.00
2023-01-02T15:08:58.449Z,3.40
2023-01-02T15:11:45.300Z,3.60
2023-01-02T15:14:23.384Z,3.50
2023-01-02T15:16:55.096Z,3.77
2023-01-02T15:19:26.860Z,3.47
2023-01-02T15:21:55.950Z,3.90
2023-01-02T15:24:30.402Z,3.43
2023-01-02T15:27:14.008Z,3.50
2023-01-02T15:29:49.138Z,3.23
2023-01-02T15:32:20.815Z,3.53
2023-01-02T15:34:51.143Z,3.77
2023-01-02T15:37:21.925Z,3.93
2023-01-02T15:39:53.844Z,3.73
2023-01-02T15:42:42.893Z,3.60
2023-01-02T15:45:15.978Z,3.30
2023-01-02T15:47:49.028Z,3.87
2023-01-02T15:50:20.987Z,2.93
2023-01-02T15:52:54.222Z,3.70
2023-01-02T15:55:22.849Z,3.50
2023-01-02T15:57:54.552Z,3.17
2023-01-02T16:00:40.309Z,3.47
2023-01-02T16:03:10.579Z,3.23
2023-01-02T16:05:48.587Z,3.60
2023-01-02T16:08:22.745Z,3.77
2023-01-02T16:11:01.496Z,3.00
2023-01-02T16:13:51.182Z,4.57
2023-01-02T16:16:22.339Z,3.13
2023-01-02T16:18:59.570Z,3.63
2023-01-02T16:21:32.130Z,3.30
2023-01-02T16:24:01.130Z,3.00
2023-01-02T16:26:34.207Z,3.83
2023-01-02T16:29:02.618Z,3.60
2023-01-02T16:31:52.363Z,3.43
2023-01-02T16:34:28.621Z,3.37
2023-01-02T16:37:39.200Z,3.20
2023-01-02T16:40:59.599Z,2.83
2023-01-02T16:43:41.082Z,3.07
2023-01-02T16:46:16.539Z,3.23
2023-01-02T16:48:46.654Z,3.37
2023-01-02T16:51:16.875Z,3.57
2023-01-02T16:53:46.091Z,4.07
2023-01-02T16:56:16.589Z,3.73
2023-01-02T16:58:45.091Z,3.77
2023-01-02T17:01:16.865Z,4.20
2023-01-02T17:03:49.088Z,3.87
2023-01-02T17:06:19.220Z,3.40
2023-01-02T17:08:54.105Z,3.67
2023-01-02T17:11:30.031Z,3.73
2023-01-02T17:14:02.124Z,2.73
2023-01-02T17:16:30.552Z,2.83
2023-01-02T17:19:00.369Z,3.53
2023-01-02T17:21:32.722Z,4.17
2023-01-02T17:24:01.623Z,3.43
2023-01-02T17:26:31.015Z,3.40
2023-01-02T17:29:00.373Z,3.87
2023-01-02T17:31:28.750Z,3.40
2023-01-02T17:33:57.114Z,3.33
2023-01-02T17:36:26.937Z,3.43
2023-01-02T17:38:55.987Z,3.77
2023-01-02T17:41:25.632Z,3.70
2023-01-02T17:44:02.393Z,4.00
2023-01-02T17:49:22.148Z,3.53
2023-01-02T17:51:51.967Z,4.60
2023-01-02T17:54:20.407Z,3.43
2023-01-02T17:56:48.820Z,3.70
2023-01-02T17:59:19.954Z,4.03
2023-01-02T18:01:49.378Z,5.70
2023-01-02T18:04:18.232Z,5.03
2023-01-02T18:06:46.835Z,4.90
2023-01-02T18:09:16.577Z,4.87
2023-01-02T18:11:45.024Z,5.60
2023-01-02T18:14:18.474Z,5.43
2023-01-02T18:16:47.983Z,5.03
2023-01-02T18:19:18.690Z,4.47
2023-01-02T18:21:48.120Z,4.67
2023-01-02T18:24:24.571Z,3.77
2023-01-02T18:26:59.208Z,4.23
2023-01-02T18:29:27.551Z,4.20
2023-01-02T18:31:56.227Z,3.83
2023-01-02T18:34:47.784Z,3.97
2023-01-02T18:37:21.316Z,4.17
2023-01-02T18:39:51.602Z,3.63
2023-01-02T18:42:23.134Z,4.03
2023-01-02T18:44:53.694Z,4.23
2023-01-02T18:47:29.674Z,4.17
2023-01-02T18:50:02.200Z,3.93
2023-01-02T18:52:34.195Z,3.83
2023-01-02T18:55:24.106Z,4.10
2023-01-02T18:57:57.723Z,5.70
2023-01-02T19:00:28.440Z,4.10
2023-01-02T19:03:01.158Z,4.10
2023-01-02T19:05:31.917Z,4.83
2023-01-02T19:08:19.593Z,4.37
2023-01-02T19:10:51.525Z,3.83
2023-01-02T19:13:21.319Z,4.37
2023-01-02T19:15:51.240Z,4.67
2023-01-02T19:18:35.479Z,4.60
2023-01-02T19:21:17.937Z,4.37
2023-01-02T19:23:49.640Z,4.43
2023-01-02T19:26:24.538Z,4.17
2023-01-02T19:28:57.900Z,4.20
2023-01-02T19:31:27.468Z,4.83
2023-01-02T19:33:58.553Z,4.10
2023-01-02T19:36:36.765Z,4.00
2023-01-02T19:39:24.483Z,3.97
2023-01-02T19:42:12.196Z,3.70
2023-01-02T19:44:41.514Z,3.80
2023-01-02T19:47:09.888Z,3.90
2023-01-02T19:49:38.414Z,4.23
2023-01-02T19:52:07.578Z,4.93
2023-01-02T19:54:35.877Z,4.63
2023-01-02T19:57:07.364Z,3.77
2023-01-02T19:59:43.300Z,4.17
2023-01-02T20:02:12.969Z,3.90
2023-01-02T20:04:42.060Z,4.23
2023-01-02T20:07:11.049Z,4.37
2023-01-02T20:09:39.759Z,4.97
2023-01-02T20:12:27.276Z,4.00
2023-01-02T20:14:55.699Z,3.97
2023-01-02T20:17:24.171Z,3.97
2023-01-02T20:19:52.813Z,4.40
2023-01-02T20:22:21.115Z,4.00
2023-01-02T20:24:49.627Z,4.07
2023-01-02T20:27:20.687Z,4.50
2023-01-02T20:29:49.183Z,5.60
2023-01-02T20:32:18.026Z,4.13
2023-01-02T20:34:46.459Z,4.20
2023-01-02T20:37:15.044Z,3.63
2023-01-02T20:39:43.475Z,4.20
2023-01-02T20:42:13.651Z,4.23
2023-01-02T20:44:43.750Z,4.27
2023-01-02T20:47:13.130Z,4.00
2023-01-02T20:49:42.183Z,3.57
2023-01-02T20:52:10.817Z,4.30
2023-01-02T20:54:39.385Z,3.97
2023-01-02T20:57:07.733Z,4.03
2023-01-02T20:59:36.232Z,3.23
2023-01-02T21:02:08.098Z,3.70
2023-01-02T21:04:37.325Z,4.40
2023-01-02T21:07:06.543Z,4.03
2023-01-02T21:09:35.061Z,3.73
2023-01-02T21:12:03.409Z,3.50
2023-01-02T21:14:37.288Z,4.23
2023-01-02T21:17:07.523Z,4.70
2023-01-02T21:19:35.975Z,4.40
2023-01-02T21:22:05.134Z,3.37
2023-01-02T21:24:33.502Z,4.20
2023-01-02T21:27:01.827Z,4.10
2023-01-02T21:29:30.199Z,4.03
2023-01-02T21:31:58.506Z,3.53
2023-01-02T21:34:29.434Z,3.53
2023-01-02T21:36:57.702Z,4.10
2023-01-02T21:39:26.148Z,3.63
2023-01-02T21:42:12.139Z,3.63
2023-01-02T21:44:40.582Z,3.80
2023-01-02T21:47:09.371Z,4.13
2023-01-02T21:49:39.193Z,4.20
2023-01-02T21:52:07.669Z,4.63
2023-01-02T21:54:36.023Z,4.23
2023-01-02T21:57:04.322Z,4.60
2023-01-02T21:59:32.680Z,4.97
2023-01-02T22:02:03.920Z,5.33
2023-01-02T22:04:33.608Z,5.57
2023-01-02T22:07:30.709Z,6.07
2023-01-02T22:09:53.177Z,4.67
2023-01-02T22:12:21.579Z,5.67
2023-01-02T22:14:49.983Z,5.70
2023-01-02T22:17:18.327Z,6.40
2023-01-02T22:19:46.756Z,5.63
2023-01-02T22:22:16.939Z,5.60
2023-01-02T22:24:46.103Z,5.80
2023-01-02T22:27:17.418Z,5.73
2023-01-02T22:32:36.323Z,6.10
2023-01-02T22:35:07.203Z,6.77
2023-01-02T22:37:37.043Z,8.10
2023-01-02T22:40:06.074Z,6.67
2023-01-02T22:43:00.968Z,6.73
2023-01-02T22:45:35.202Z,6.87
2023-01-02T22:48:07.743Z,6.20
2023-01-02T22:50:43.174Z,6.57
2023-01-02T22:53:20.200Z,6.90
2023-01-02T22:55:50.259Z,6.63
2023-01-02T22:58:20.023Z,6.90
2023-01-02T23:00:57.936Z,7.63
2023-01-02T23:03:29.703Z,8.13
2023-01-02T23:05:58.635Z,9.00
2023-01-02T23:08:28.476Z,10.57
2023-01-02T23:10:56.996Z,9.90
2023-01-02T23:13:25.323Z,8.87
2023-01-02T23:16:11.496Z,9.57
2023-01-02T23:19:12.935Z,9.17
2023-01-02T23:21:44.547Z,8.63
2023-01-02T23:24:17.502Z,8.50
2023-01-02T23:26:47.664Z,8.57
2023-01-02T23:29:17.569Z,8.13
2023-01-02T23:31:49.003Z,8.17
2023-01-02T23:34:18.896Z,8.33
2023-01-02T23:36:47.229Z,8.07
2023-01-02T23:39:19.659Z,8.07
2023-01-02T23:41:49.008Z,7.90
2023-01-02T23:44:18.156Z,8.33
2023-01-02T23:46:47.477Z,8.93
2023-01-02T23:49:17.420Z,8.60
2023-01-02T23:51:47.352Z,9.80
2023-01-02T23:54:18.214Z,9.43
2023-01-02T23:56:48.388Z,9.77
2023-01-02T23:59:18.799Z,9.17
